RDHK700 KNDZ-KNDZ
Flight info
| Callsign | RDHK700 |
|---|---|
| Flight time | 0h 26m |
| Altitude | 2000 |
| Route | VFR DCT |
| Aircraft | H60/L-V/N |
Departure
| Time | 2026-04-16 08:58 |
|---|---|
| Airport | Whiting Field Naval Air Station South Airport (KNDZ) |
Arrival
| Time | 2026-04-16 09:24 |
|---|---|
| Airport | Whiting Field Naval Air Station South Airport (KNDZ) |
| Time | Latitude | Longitude | Altitude | Speed | Heading |
|---|---|---|---|---|---|
| 2026-04-16 08:45 | 30.70214 | -87.01539 | 178 ft | 0 kts | 1° |
| 2026-04-16 08:54 | 30.70222 | -87.01537 | 183 ft | 1 kts | 13° |
| 2026-04-16 08:54 | 30.70224 | -87.01537 | 187 ft | 1 kts | 24° |
| 2026-04-16 08:55 | 30.70227 | -87.01533 | 206 ft | 4 kts | 37° |
| 2026-04-16 08:55 | 30.70275 | -87.01466 | 240 ft | 20 kts | 36° |
| 2026-04-16 08:55 | 30.70463 | -87.01295 | 335 ft | 51 kts | 36° |
| 2026-04-16 08:55 | 30.70982 | -87.01508 | 331 ft | 101 kts | 327° |
| 2026-04-16 08:56 | 30.71542 | -87.01995 | 642 ft | 103 kts | 322° |
| 2026-04-16 08:56 | 30.72140 | -87.02512 | 766 ft | 111 kts | 322° |
| 2026-04-16 08:56 | 30.72834 | -87.02988 | 754 ft | 123 kts | 340° |
| 2026-04-16 08:56 | 30.73716 | -87.03021 | 572 ft | 132 kts | 9° |
| 2026-04-16 08:57 | 30.74588 | -87.02687 | 496 ft | 132 kts | 20° |
| 2026-04-16 08:57 | 30.75450 | -87.02317 | 510 ft | 131 kts | 20° |
| 2026-04-16 08:57 | 30.76286 | -87.01979 | 569 ft | 121 kts | 13° |
| 2026-04-16 08:57 | 30.77075 | -87.01818 | 708 ft | 118 kts | 9° |
| 2026-04-16 08:58 | 30.77896 | -87.01705 | 751 ft | 119 kts | 1° |
| 2026-04-16 08:58 | 30.78690 | -87.01688 | 897 ft | 110 kts | 0° |
| 2026-04-16 08:58 | 30.79457 | -87.01659 | 1047 ft | 111 kts | 0° |
| 2026-04-16 08:58 | 30.80225 | -87.01626 | 1057 ft | 112 kts | 0° |
| 2026-04-16 08:59 | 30.80994 | -87.01592 | 1045 ft | 110 kts | 0° |
| 2026-04-16 08:59 | 30.81761 | -87.01558 | 1049 ft | 111 kts | 0° |
| 2026-04-16 08:59 | 30.82529 | -87.01552 | 1043 ft | 109 kts | 353° |
| 2026-04-16 08:59 | 30.83255 | -87.01752 | 1028 ft | 109 kts | 338° |
| 2026-04-16 09:00 | 30.83966 | -87.02050 | 1066 ft | 109 kts | 338° |
| 2026-04-16 09:00 | 30.84684 | -87.02341 | 1066 ft | 109 kts | 338° |
| 2026-04-16 09:00 | 30.85401 | -87.02630 | 1046 ft | 109 kts | 338° |
| 2026-04-16 09:00 | 30.86119 | -87.02919 | 1061 ft | 109 kts | 338° |
| 2026-04-16 09:01 | 30.87548 | -87.03489 | 1314 ft | 110 kts | 338° |
| 2026-04-16 09:01 | 30.88273 | -87.03771 | 1643 ft | 112 kts | 338° |
| 2026-04-16 09:01 | 30.89036 | -87.04066 | 1763 ft | 115 kts | 338° |
| 2026-04-16 09:02 | 30.89787 | -87.04355 | 1860 ft | 116 kts | 338° |
| 2026-04-16 09:02 | 30.90553 | -87.04648 | 1835 ft | 118 kts | 338° |
| 2026-04-16 09:02 | 30.91329 | -87.04947 | 1551 ft | 115 kts | 338° |
| 2026-04-16 09:02 | 30.92071 | -87.05236 | 1395 ft | 113 kts | 338° |
| 2026-04-16 09:03 | 30.92811 | -87.05525 | 1257 ft | 112 kts | 338° |
| 2026-04-16 09:03 | 30.93341 | -87.05734 | 1139 ft | 113 kts | 338° |
| 2026-04-16 09:03 | 30.94106 | -87.06053 | 990 ft | 119 kts | 332° |
| 2026-04-16 09:03 | 30.94770 | -87.06622 | 910 ft | 116 kts | 314° |
| 2026-04-16 09:04 | 30.95218 | -87.07341 | 967 ft | 110 kts | 296° |
| 2026-04-16 09:04 | 30.95451 | -87.08184 | 967 ft | 110 kts | 278° |
| 2026-04-16 09:04 | 30.95398 | -87.09070 | 909 ft | 113 kts | 251° |
| 2026-04-16 09:04 | 30.94908 | -87.09783 | 833 ft | 116 kts | 216° |
| 2026-04-16 09:05 | 30.94128 | -87.09976 | 871 ft | 118 kts | 175° |
| 2026-04-16 09:05 | 30.93412 | -87.09515 | 883 ft | 119 kts | 139° |
| 2026-04-16 09:05 | 30.92834 | -87.08867 | 969 ft | 114 kts | 152° |
| 2026-04-16 09:05 | 30.92046 | -87.08843 | 876 ft | 118 kts | 199° |
| 2026-04-16 09:06 | 30.91444 | -87.09438 | 910 ft | 115 kts | 236° |
| 2026-04-16 09:06 | 30.91259 | -87.10313 | 932 ft | 114 kts | 270° |
| 2026-04-16 09:06 | 30.91595 | -87.11142 | 914 ft | 119 kts | 312° |
| 2026-04-16 09:06 | 30.92368 | -87.11442 | 785 ft | 130 kts | 8° |
| 2026-04-16 09:07 | 30.93184 | -87.11010 | 923 ft | 121 kts | 26° |
| 2026-04-16 09:07 | 30.93910 | -87.10585 | 1167 ft | 118 kts | 28° |
| 2026-04-16 09:07 | 30.94669 | -87.10090 | 1145 ft | 132 kts | 27° |
| 2026-04-16 09:07 | 30.95559 | -87.09665 | 906 ft | 145 kts | 11° |
| 2026-04-16 09:08 | 30.96532 | -87.09884 | 692 ft | 144 kts | 326° |
| 2026-04-16 09:08 | 30.97123 | -87.10714 | 955 ft | 121 kts | 302° |
| 2026-04-16 09:08 | 30.97610 | -87.11521 | 1127 ft | 129 kts | 305° |
| 2026-04-16 09:08 | 30.98151 | -87.12409 | 874 ft | 141 kts | 302° |
| 2026-04-16 09:09 | 30.98483 | -87.13384 | 932 ft | 122 kts | 278° |
| 2026-04-16 09:09 | 30.98468 | -87.14005 | 980 ft | 112 kts | 263° |
| 2026-04-16 09:10 | 30.98431 | -87.14628 | 936 ft | 129 kts | 265° |
| 2026-04-16 09:10 | 30.98312 | -87.15728 | 934 ft | 146 kts | 256° |
| 2026-04-16 09:10 | 30.98040 | -87.16823 | 963 ft | 131 kts | 253° |
| 2026-04-16 09:10 | 30.97784 | -87.17880 | 964 ft | 136 kts | 253° |
| 2026-04-16 09:11 | 30.97473 | -87.18910 | 951 ft | 134 kts | 245° |
| 2026-04-16 09:11 | 30.97088 | -87.19904 | 948 ft | 134 kts | 245° |
| 2026-04-16 09:11 | 30.96671 | -87.20874 | 948 ft | 134 kts | 239° |
| 2026-04-16 09:11 | 30.96192 | -87.21806 | 965 ft | 135 kts | 239° |
| 2026-04-16 09:12 | 30.95718 | -87.22744 | 942 ft | 136 kts | 239° |
| 2026-04-16 09:12 | 30.95112 | -87.23553 | 909 ft | 138 kts | 217° |
| 2026-04-16 09:12 | 30.94210 | -87.23886 | 945 ft | 137 kts | 185° |
| 2026-04-16 09:12 | 30.93305 | -87.23617 | 940 ft | 135 kts | 153° |
| 2026-04-16 09:13 | 30.92672 | -87.22839 | 970 ft | 132 kts | 121° |
| 2026-04-16 09:13 | 30.92381 | -87.21819 | 975 ft | 140 kts | 108° |
| 2026-04-16 09:13 | 30.92094 | -87.20728 | 968 ft | 140 kts | 108° |
| 2026-04-16 09:13 | 30.91805 | -87.19641 | 965 ft | 140 kts | 108° |
| 2026-04-16 09:14 | 30.91519 | -87.18563 | 975 ft | 140 kts | 108° |
| 2026-04-16 09:14 | 30.91236 | -87.17497 | 976 ft | 139 kts | 108° |
| 2026-04-16 09:14 | 30.90947 | -87.16414 | 976 ft | 140 kts | 108° |
| 2026-04-16 09:14 | 30.90659 | -87.15338 | 969 ft | 140 kts | 108° |
| 2026-04-16 09:15 | 30.90371 | -87.14254 | 968 ft | 139 kts | 108° |
| 2026-04-16 09:15 | 30.90084 | -87.13179 | 974 ft | 139 kts | 108° |
| 2026-04-16 09:15 | 30.89793 | -87.12093 | 944 ft | 141 kts | 108° |
| 2026-04-16 09:15 | 30.89506 | -87.11016 | 966 ft | 139 kts | 108° |
| 2026-04-16 09:16 | 30.89092 | -87.10008 | 981 ft | 135 kts | 126° |
| 2026-04-16 09:16 | 30.88434 | -87.09260 | 982 ft | 136 kts | 140° |
| 2026-04-16 09:16 | 30.87725 | -87.08522 | 987 ft | 137 kts | 139° |
| 2026-04-16 09:16 | 30.87015 | -87.07784 | 987 ft | 137 kts | 140° |
| 2026-04-16 09:17 | 30.86215 | -87.07155 | 977 ft | 133 kts | 149° |
| 2026-04-16 09:17 | 30.85418 | -87.06565 | 985 ft | 137 kts | 149° |
| 2026-04-16 09:17 | 30.84641 | -87.05988 | 1019 ft | 125 kts | 149° |
| 2026-04-16 09:17 | 30.83961 | -87.05475 | 1077 ft | 107 kts | 149° |
| 2026-04-16 09:18 | 30.83365 | -87.05021 | 1018 ft | 98 kts | 149° |
| 2026-04-16 09:18 | 30.82798 | -87.04650 | 1024 ft | 93 kts | 163° |
| 2026-04-16 09:18 | 30.82117 | -87.04499 | 995 ft | 107 kts | 170° |
| 2026-04-16 09:18 | 30.81356 | -87.04322 | 981 ft | 117 kts | 172° |
| 2026-04-16 09:19 | 30.80525 | -87.04263 | 980 ft | 122 kts | 179° |
| 2026-04-16 09:19 | 30.79661 | -87.04212 | 980 ft | 125 kts | 179° |
| 2026-04-16 09:19 | 30.78794 | -87.04159 | 987 ft | 125 kts | 178° |
| 2026-04-16 09:19 | 30.77935 | -87.03934 | 973 ft | 128 kts | 166° |
| 2026-04-16 09:20 | 30.77078 | -87.03659 | 982 ft | 127 kts | 166° |
| 2026-04-16 09:20 | 30.76223 | -87.03389 | 986 ft | 127 kts | 166° |
| 2026-04-16 09:20 | 30.75376 | -87.03119 | 975 ft | 128 kts | 166° |
| 2026-04-16 09:20 | 30.74505 | -87.02832 | 981 ft | 129 kts | 166° |
| 2026-04-16 09:21 | 30.73655 | -87.02568 | 980 ft | 128 kts | 166° |
| 2026-04-16 09:21 | 30.72789 | -87.02306 | 1018 ft | 128 kts | 167° |
| 2026-04-16 09:21 | 30.71905 | -87.02162 | 942 ft | 129 kts | 174° |
| 2026-04-16 09:21 | 30.71013 | -87.02044 | 822 ft | 126 kts | 174° |
| 2026-04-16 09:22 | 30.70167 | -87.01958 | 722 ft | 119 kts | 181° |
| 2026-04-16 09:22 | 30.69369 | -87.02044 | 766 ft | 111 kts | 185° |
| 2026-04-16 09:22 | 30.68635 | -87.02016 | 921 ft | 102 kts | 175° |
| 2026-04-16 09:22 | 30.67995 | -87.01744 | 753 ft | 94 kts | 140° |
| 2026-04-16 09:23 | 30.67800 | -87.01175 | 901 ft | 65 kts | 101° |
| 2026-04-16 09:23 | 30.67960 | -87.00704 | 856 ft | 51 kts | 66° |
| 2026-04-16 09:23 | 30.68276 | -87.00629 | 658 ft | 66 kts | 40° |
| 2026-04-16 09:23 | 30.68887 | -87.00757 | 407 ft | 104 kts | 338° |
| 2026-04-16 09:24 | 30.69367 | -87.01272 | 337 ft | 80 kts | 314° |
| 2026-04-16 09:24 | 30.69682 | -87.01624 | 272 ft | 47 kts | 316° |
| 2026-04-16 09:24 | 30.69832 | -87.01788 | 211 ft | 12 kts | 318° |
| 2026-04-16 09:24 | 30.69815 | -87.01792 | 178 ft | 5 kts | 320° |
| 2026-04-16 09:25 | 30.69815 | -87.01797 | 186 ft | 1 kts | 321° |
| 2026-04-16 09:25 | 30.69934 | -87.01916 | 261 ft | 47 kts | 323° |
| 2026-04-16 09:25 | 30.70274 | -87.02278 | 510 ft | 84 kts | 315° |
| 2026-04-16 09:25 | 30.70372 | -87.02995 | 637 ft | 106 kts | 260° |
| 2026-04-16 09:26 | 30.69889 | -87.03682 | 492 ft | 123 kts | 205° |
| 2026-04-16 09:26 | 30.69050 | -87.03732 | 621 ft | 116 kts | 172° |
| 2026-04-16 09:26 | 30.68310 | -87.03479 | 752 ft | 106 kts | 162° |
| 2026-04-16 09:26 | 30.67623 | -87.03214 | 816 ft | 103 kts | 162° |
| 2026-04-16 09:27 | 30.67129 | -87.02539 | 587 ft | 125 kts | 107° |
| 2026-04-16 09:27 | 30.67243 | -87.01553 | 551 ft | 123 kts | 69° |
| 2026-04-16 09:27 | 30.67821 | -87.00849 | 562 ft | 115 kts | 35° |
| 2026-04-16 09:27 | 30.68411 | -87.00678 | 674 ft | 74 kts | 354° |
| 2026-04-16 09:28 | 30.68876 | -87.00789 | 464 ft | 63 kts | 314° |
| 2026-04-16 09:28 | 30.69177 | -87.01076 | 289 ft | 51 kts | 312° |
| 2026-04-16 09:28 | 30.69360 | -87.01278 | 184 ft | 20 kts | 317° |
| 2026-04-16 09:28 | 30.69353 | -87.01293 | 178 ft | 6 kts | 317° |
| 2026-04-16 09:29 | 30.69341 | -87.01291 | 180 ft | 1 kts | 318° |
| 2026-04-16 09:29 | 30.69442 | -87.01391 | 200 ft | 40 kts | 321° |
| 2026-04-16 09:29 | 30.69763 | -87.01720 | 304 ft | 78 kts | 319° |
| 2026-04-16 09:29 | 30.70199 | -87.02206 | 438 ft | 94 kts | 316° |
| 2026-04-16 09:30 | 30.70557 | -87.02877 | 520 ft | 110 kts | 281° |
| 2026-04-16 09:30 | 30.70243 | -87.03716 | 591 ft | 125 kts | 224° |
| 2026-04-16 09:30 | 30.69393 | -87.03952 | 512 ft | 134 kts | 171° |
| 2026-04-16 09:30 | 30.68633 | -87.03355 | 415 ft | 130 kts | 135° |
| 2026-04-16 09:31 | 30.68054 | -87.02602 | 716 ft | 127 kts | 130° |
| 2026-04-16 09:31 | 30.67511 | -87.01724 | 714 ft | 139 kts | 123° |
| 2026-04-16 09:31 | 30.67174 | -87.00704 | 597 ft | 131 kts | 93° |
| 2026-04-16 09:31 | 30.67535 | -86.99819 | 533 ft | 122 kts | 36° |
| 2026-04-16 09:32 | 30.68278 | -86.99837 | 575 ft | 109 kts | 327° |
| 2026-04-16 09:32 | 30.68711 | -87.00510 | 394 ft | 98 kts | 321° |
| 2026-04-16 09:32 | 30.69112 | -87.01039 | 316 ft | 79 kts | 323° |
| 2026-04-16 09:32 | 30.69446 | -87.01377 | 219 ft | 48 kts | 321° |
| 2026-04-16 09:33 | 30.69593 | -87.01521 | 176 ft | 10 kts | 329° |
| 2026-04-16 09:33 | 30.69618 | -87.01554 | 179 ft | 9 kts | 341° |
| 2026-04-16 09:33 | 30.69658 | -87.01571 | 179 ft | 8 kts | 2° |
| 2026-04-16 09:33 | 30.69716 | -87.01591 | 193 ft | 11 kts | 2° |
| 2026-04-16 09:34 | 30.69800 | -87.01604 | 193 ft | 10 kts | 3° |
| 2026-04-16 09:34 | 30.69893 | -87.01615 | 200 ft | 17 kts | 3° |
| 2026-04-16 09:34 | 30.70017 | -87.01602 | 212 ft | 16 kts | 5° |
| 2026-04-16 09:34 | 30.70106 | -87.01629 | 209 ft | 11 kts | 4° |
| 2026-04-16 09:35 | 30.70147 | -87.01614 | 197 ft | 3 kts | 14° |
| 2026-04-16 09:35 | 30.70169 | -87.01608 | 198 ft | 3 kts | 9° |
| 2026-04-16 09:35 | 30.70192 | -87.01605 | 187 ft | 4 kts | 9° |
| 2026-04-16 09:35 | 30.70200 | -87.01607 | 184 ft | 1 kts | 9° |
| 2026-04-16 09:36 | 30.70202 | -87.01606 | 180 ft | 0 kts | 9° |